Skanee, Michigan
Current Conditions -  °F | °C
As of 8:15 AM on Sunday 23 Nov 2014 (Local Time) from KCMX Reporting Station
Haze Haze  
Wind Chill: 32°   Ceiling: 500
Heat Index: 37°   Visibility: 2mi
Dew Point: 35°   Wind: 6mph
Humidity: 93%   Direction: 130°SE
Pressure: 29.49"   Gusts: NA
Location:  46.87°N, 88.21°W
Report Text: KCMX 231315Z AUTO 13005KT 2SM BR OVC005 03/02 A2949 RMK AO2 T00280017
Loading
Personal Weather Stations






























Interactive Weather Map New forecast layout! Learn more

10-Day Weather Forecast

Advertisements
Track Severe Weather on mobile